Time;durP1;ratioP1;P1;durP2;ratioP2;P2;SDS_P1;SDS_P2;PMS_P1;PMS_P2;Temp;Humidity;BMP_temperature;BMP_pressure;BME280_temperature;BME280_humidity;BME280_pressure;Samples;Min_cycle;Max_cycle;Signal;HPM_P1;HPM_P2
2023/12/28 00:00:13;;;;;;;1.90;1.50;;;12.90;67.50;;;;;;5050424;28;20037;-58
2023/12/28 00:02:41;;;;;;;2.20;2.00;;;12.90;67.70;;;;;;5048224;28;20415;-59
2023/12/28 00:05:13;;;;;;;1.95;1.33;;;12.80;67.80;;;;;;5048293;28;20460;-57
2023/12/28 00:07:41;;;;;;;2.17;1.70;;;12.90;67.80;;;;;;5055620;28;20075;-57
2023/12/28 00:10:12;;;;;;;2.45;1.70;;;12.80;67.80;;;;;;5066328;28;20563;-60
2023/12/28 00:12:38;;;;;;;3.25;1.60;;;12.80;67.60;;;;;;5062963;28;20064;-57
2023/12/28 00:15:08;;;;;;;1.80;1.63;;;12.80;67.70;;;;;;5056504;28;20040;-58
2023/12/28 00:17:37;;;;;;;1.53;1.43;;;12.90;67.80;;;;;;5061054;28;20041;-58
2023/12/28 00:20:04;;;;;;;2.15;1.60;;;12.80;67.90;;;;;;5063246;28;20041;-57
2023/12/28 00:22:37;;;;;;;2.08;1.48;;;12.90;67.80;;;;;;5052714;28;20499;-57
2023/12/28 00:25:10;;;;;;;3.55;1.90;;;12.90;67.60;;;;;;5058916;28;20049;-60
2023/12/28 00:27:39;;;;;;;2.03;1.70;;;12.90;67.50;;;;;;5064105;28;20118;-61
2023/12/28 00:30:07;;;;;;;4.30;1.50;;;12.90;67.60;;;;;;5066297;28;20402;-57
2023/12/28 00:32:34;;;;;;;2.60;1.85;;;12.90;67.50;;;;;;5058885;28;20044;-58
2023/12/28 00:35:01;;;;;;;1.95;1.42;;;12.90;67.50;;;;;;5048655;28;20114;-58
2023/12/28 00:37:27;;;;;;;2.92;1.85;;;12.90;67.70;;;;;;5064529;28;20051;-57
2023/12/28 00:39:59;;;;;;;1.38;1.27;;;12.90;67.60;;;;;;5054104;28;20036;-55
2023/12/28 00:42:25;;;;;;;2.25;1.63;;;12.90;67.80;;;;;;5050170;28;20032;-59
2023/12/28 00:44:57;;;;;;;1.90;1.60;;;12.90;67.80;;;;;;5061130;28;20048;-57
2023/12/28 00:47:24;;;;;;;2.50;2.08;;;12.90;67.90;;;;;;5064724;28;20048;-57
2023/12/28 00:49:52;;;;;;;3.47;2.03;;;12.90;68.00;;;;;;5064127;28;20040;-56
2023/12/28 00:52:20;;;;;;;2.78;1.88;;;12.90;68.10;;;;;;5043279;28;20519;-60
2023/12/28 00:54:50;;;;;;;2.30;1.80;;;13.00;68.30;;;;;;5060062;28;20474;-59
2023/12/28 00:57:28;;;;;;;2.42;1.67;;;13.00;68.50;;;;;;5062828;28;20067;-59
2023/12/28 00:59:55;;;;;;;2.30;1.83;;;13.10;68.40;;;;;;5048241;28;20041;-58
2023/12/28 01:02:27;;;;;;;1.83;1.70;;;13.00;68.60;;;;;;5047376;28;20514;-58
2023/12/28 01:04:53;;;;;;;3.42;2.05;;;13.10;68.70;;;;;;5049403;28;20041;-57
2023/12/28 01:07:22;;;;;;;2.72;2.00;;;13.00;68.80;;;;;;5048696;28;20562;-58
2023/12/28 01:09:50;;;;;;;2.20;1.88;;;13.10;68.90;;;;;;5060748;28;20104;-56
2023/12/28 01:12:17;;;;;;;2.63;1.95;;;13.10;69.10;;;;;;5064303;28;20086;-56
2023/12/28 01:14:45;;;;;;;2.17;1.92;;;13.10;69.20;;;;;;5060708;28;20041;-59
2023/12/28 01:17:11;;;;;;;3.08;2.50;;;13.10;69.40;;;;;;5051797;28;20063;-59
2023/12/28 01:19:41;;;;;;;2.40;2.00;;;13.10;69.40;;;;;;5062484;28;20499;-56
2023/12/28 01:22:10;;;;;;;3.25;1.92;;;13.10;69.50;;;;;;5059811;28;20040;-60
2023/12/28 01:24:37;;;;;;;2.80;1.85;;;13.20;69.60;;;;;;5057095;28;20503;-57
2023/12/28 01:27:09;;;;;;;3.17;1.85;;;13.20;69.70;;;;;;5065387;28;20044;-60
2023/12/28 01:29:36;;;;;;;2.15;1.95;;;13.20;69.70;;;;;;5065555;28;20788;-58
2023/12/28 01:32:03;;;;;;;3.95;2.00;;;13.20;69.80;;;;;;5057650;28;20583;-59
2023/12/28 01:34:30;;;;;;;3.42;1.88;;;13.20;69.90;;;;;;5052612;28;20039;-60
2023/12/28 01:36:57;;;;;;;2.63;1.60;;;13.20;69.90;;;;;;5060037;28;20040;-58
2023/12/28 01:39:34;;;;;;;2.45;2.15;;;13.20;70.00;;;;;;5060235;28;20046;-56
2023/12/28 01:42:04;;;;;;;2.03;1.77;;;13.20;70.00;;;;;;5052631;28;20040;-56
2023/12/28 01:44:33;;;;;;;2.13;1.73;;;13.20;70.10;;;;;;5065308;28;20046;-57
2023/12/28 01:47:08;;;;;;;3.05;1.92;;;13.20;70.20;;;;;;5064232;28;20724;-58
2023/12/28 01:49:35;;;;;;;3.10;2.28;;;13.30;70.30;;;;;;5058193;28;20041;-58
2023/12/28 01:52:08;;;;;;;2.20;1.85;;;13.30;70.30;;;;;;5062977;28;20056;-58
2023/12/28 01:54:37;;;;;;;5.13;2.67;;;13.30;70.40;;;;;;5059816;28;20056;-57
2023/12/28 01:57:13;;;;;;;2.85;2.25;;;13.30;70.40;;;;;;5071452;28;20036;-58
2023/12/28 01:59:41;;;;;;;3.42;2.28;;;13.30;70.40;;;;;;5049099;28;20400;-60
2023/12/28 02:02:09;;;;;;;2.97;2.42;;;13.30;70.40;;;;;;5051158;28;20037;-57
2023/12/28 02:04:36;;;;;;;5.05;2.38;;;13.30;70.50;;;;;;5052946;28;20076;-60
2023/12/28 02:07:03;;;;;;;2.72;2.13;;;13.30;70.50;;;;;;5058217;28;20494;-57
2023/12/28 02:09:30;;;;;;;4.50;2.25;;;13.30;70.40;;;;;;5066749;28;20040;-58
2023/12/28 02:11:57;;;;;;;5.35;2.40;;;13.40;70.50;;;;;;5054059;28;20040;-58
2023/12/28 02:14:25;;;;;;;2.30;1.83;;;13.30;70.40;;;;;;5058747;28;20154;-55
2023/12/28 02:16:58;;;;;;;3.10;2.20;;;13.40;70.50;;;;;;5061039;28;20036;-59
2023/12/28 02:19:38;;;;;;;3.03;2.10;;;13.40;70.50;;;;;;5069603;28;20094;-57
2023/12/28 02:22:12;;;;;;;2.15;1.70;;;13.40;70.50;;;;;;5054562;28;20041;-58
2023/12/28 02:25:09;;;;;;;2.92;2.28;;;13.40;70.50;;;;;;5058913;28;20036;-60
2023/12/28 02:27:42;;;;;;;2.72;1.92;;;13.40;70.30;;;;;;5066031;28;20418;-60
2023/12/28 02:30:16;;;;;;;2.17;1.98;;;13.40;70.40;;;;;;5071639;28;20119;-57
2023/12/28 02:33:15;;;;;;;3.05;1.98;;;13.30;70.50;;;;;;5062929;28;20042;-58
2023/12/28 02:36:04;;;;;;;3.08;2.28;;;13.40;70.50;;;;;;5064001;28;20044;-59
2023/12/28 02:38:38;;;;;;;2.75;2.03;;;13.30;70.50;;;;;;5071671;28;20594;-57
2023/12/28 02:41:08;;;;;;;2.45;2.10;;;13.30;70.60;;;;;;5069680;28;20098;-57
2023/12/28 02:43:37;;;;;;;4.25;2.00;;;13.30;70.70;;;;;;5048594;28;20049;-58
2023/12/28 02:46:07;;;;;;;3.53;2.20;;;13.30;70.70;;;;;;5070539;28;20040;-57
2023/12/28 02:48:34;;;;;;;2.90;2.03;;;13.30;70.70;;;;;;5070124;28;20044;-59
2023/12/28 02:51:00;;;;;;;2.83;2.20;;;13.30;70.80;;;;;;5050981;28;20131;-58
2023/12/28 02:53:33;;;;;;;3.00;2.47;;;13.20;70.80;;;;;;5049097;28;20136;-57
2023/12/28 02:56:03;;;;;;;4.30;1.83;;;13.30;70.90;;;;;;5053794;28;20040;-59
2023/12/28 02:58:30;;;;;;;2.55;1.98;;;13.20;70.80;;;;;;5047616;28;20087;-57
2023/12/28 03:00:56;;;;;;;3.88;1.90;;;13.20;70.80;;;;;;5048066;28;20098;-57
2023/12/28 03:03:27;;;;;;;2.97;2.13;;;13.20;70.80;;;;;;5050433;28;20075;-56
2023/12/28 03:05:59;;;;;;;4.63;2.33;;;13.20;70.80;;;;;;5050103;28;20052;-56
2023/12/28 03:08:26;;;;;;;4.35;2.42;;;13.20;70.80;;;;;;5046856;28;20091;-59
2023/12/28 03:10:55;;;;;;;2.35;2.00;;;13.10;70.80;;;;;;5051133;28;20459;-58
2023/12/28 03:13:22;;;;;;;4.00;2.70;;;13.10;70.90;;;;;;5052086;28;20049;-57
2023/12/28 03:15:49;;;;;;;3.00;2.00;;;13.10;71.00;;;;;;5050066;28;20072;-58
2023/12/28 03:18:16;;;;;;;3.42;2.47;;;13.00;71.20;;;;;;5050765;28;20087;-56
2023/12/28 03:20:43;;;;;;;2.40;2.20;;;13.00;71.20;;;;;;5049811;28;20702;-56
2023/12/28 03:23:13;;;;;;;2.47;2.20;;;13.00;71.30;;;;;;5049940;28;20048;-59
2023/12/28 03:25:42;;;;;;;2.65;2.10;;;13.00;71.40;;;;;;5050574;28;20080;-59
2023/12/28 03:28:13;;;;;;;2.83;2.20;;;13.00;71.40;;;;;;5051026;28;20069;-59
2023/12/28 03:30:40;;;;;;;4.03;2.10;;;12.90;71.40;;;;;;5050213;28;20515;-59
2023/12/28 03:33:09;;;;;;;5.32;2.72;;;12.90;71.50;;;;;;5045035;28;20040;-56
2023/12/28 03:35:38;;;;;;;2.35;2.05;;;12.80;71.50;;;;;;5052349;28;20033;-60
2023/12/28 03:38:10;;;;;;;3.35;2.40;;;12.80;71.60;;;;;;5051421;28;20044;-59
2023/12/28 03:40:36;;;;;;;2.83;2.03;;;12.80;71.70;;;;;;5044511;28;20155;-56
2023/12/28 03:43:05;;;;;;;2.83;2.10;;;12.80;71.80;;;;;;5051173;28;20662;-58
2023/12/28 03:45:34;;;;;;;3.03;2.40;;;12.80;71.90;;;;;;5052923;28;20051;-56
2023/12/28 03:48:08;;;;;;;2.42;1.90;;;12.80;72.00;;;;;;5050315;28;20495;-55
2023/12/28 03:50:39;;;;;;;3.05;1.90;;;12.80;71.90;;;;;;5048036;28;20073;-61
2023/12/28 03:53:06;;;;;;;2.92;2.65;;;12.70;71.90;;;;;;5048153;28;20134;-57
2023/12/28 03:55:32;;;;;;;2.30;2.10;;;12.70;72.00;;;;;;5050991;28;20037;-59
2023/12/28 03:58:03;;;;;;;2.40;1.83;;;12.70;72.10;;;;;;5048310;28;20068;-58
2023/12/28 04:00:30;;;;;;;2.05;1.80;;;12.70;72.10;;;;;;5048777;28;20065;-56
2023/12/28 04:03:00;;;;;;;3.55;2.13;;;12.70;72.20;;;;;;5050297;28;20047;-59
2023/12/28 04:05:27;;;;;;;2.20;2.00;;;12.60;72.20;;;;;;5050827;28;20468;-61
2023/12/28 04:07:56;;;;;;;2.58;2.10;;;12.70;72.30;;;;;;5049326;28;20050;-57
2023/12/28 04:10:31;;;;;;;3.67;1.98;;;12.60;72.30;;;;;;5049515;28;20037;-58
2023/12/28 04:13:00;;;;;;;4.07;2.13;;;12.60;72.40;;;;;;5053461;28;20112;-59
2023/12/28 04:15:32;;;;;;;2.95;2.08;;;12.60;72.60;;;;;;5050588;28;20033;-58
2023/12/28 04:17:59;;;;;;;2.90;1.73;;;12.60;72.70;;;;;;5049965;28;20047;-59
2023/12/28 04:20:30;;;;;;;4.03;2.30;;;12.60;72.80;;;;;;5050579;28;21327;-60
2023/12/28 04:22:58;;;;;;;3.92;2.10;;;12.70;72.90;;;;;;5060093;28;20044;-54
2023/12/28 04:25:24;;;;;;;2.67;2.08;;;12.70;72.90;;;;;;5057820;28;20041;-58
2023/12/28 04:27:54;;;;;;;3.05;1.83;;;12.70;72.90;;;;;;5054207;28;20522;-57
2023/12/28 04:30:20;;;;;;;3.05;1.98;;;12.70;72.80;;;;;;5051382;28;20447;-59
2023/12/28 04:32:47;;;;;;;4.45;2.50;;;12.80;72.80;;;;;;5050638;28;20500;-56
2023/12/28 04:35:16;;;;;;;2.40;2.17;;;12.80;72.80;;;;;;5051615;28;20449;-56
2023/12/28 04:37:43;;;;;;;3.53;2.20;;;12.80;72.70;;;;;;5052628;28;20049;-59
2023/12/28 04:40:11;;;;;;;4.15;2.17;;;12.90;72.60;;;;;;5048798;28;20123;-57
2023/12/28 04:42:37;;;;;;;3.22;2.03;;;12.90;72.60;;;;;;5051833;28;20045;-60
2023/12/28 04:45:10;;;;;;;4.47;2.05;;;12.90;72.60;;;;;;5046307;28;20037;-59
2023/12/28 04:47:37;;;;;;;2.63;2.22;;;12.90;72.50;;;;;;5053307;28;20060;-57
2023/12/28 04:50:07;;;;;;;2.80;1.77;;;12.90;72.40;;;;;;5050040;28;20416;-59
2023/12/28 04:52:33;;;;;;;4.32;2.35;;;13.00;72.40;;;;;;5045849;28;20113;-57
2023/12/28 04:55:03;;;;;;;2.63;2.30;;;12.90;72.30;;;;;;5052489;28;20110;-60
2023/12/28 04:57:34;;;;;;;4.85;1.90;;;13.00;72.30;;;;;;5050764;28;20041;-60
2023/12/28 05:00:05;;;;;;;3.00;2.28;;;13.00;72.20;;;;;;5047841;28;20049;-56
2023/12/28 05:02:36;;;;;;;3.47;1.83;;;13.00;72.20;;;;;;5047561;28;20049;-57
2023/12/28 05:05:03;;;;;;;5.97;2.28;;;13.00;72.10;;;;;;5048503;28;20049;-57
2023/12/28 05:07:30;;;;;;;3.40;1.67;;;13.00;72.10;;;;;;5048257;28;20044;-58
2023/12/28 05:10:03;;;;;;;4.30;2.30;;;13.00;72.00;;;;;;5052743;28;20045;-56
2023/12/28 05:12:32;;;;;;;4.22;1.73;;;13.10;72.00;;;;;;5051145;28;20053;-59
2023/12/28 05:15:10;;;;;;;2.47;1.75;;;13.10;72.00;;;;;;5049735;28;20062;-58
2023/12/28 05:17:36;;;;;;;3.92;2.00;;;13.20;72.00;;;;;;5051901;28;20531;-57
2023/12/28 05:20:04;;;;;;;2.95;1.60;;;13.10;71.80;;;;;;5054032;28;20119;-58
2023/12/28 05:22:36;;;;;;;5.00;2.85;;;13.20;71.80;;;;;;5049601;28;20045;-58
2023/12/28 05:25:03;;;;;;;3.15;1.90;;;13.20;71.80;;;;;;5051862;28;20127;-56
2023/12/28 05:27:32;;;;;;;3.20;2.08;;;13.20;71.60;;;;;;5053769;28;20094;-60
2023/12/28 05:30:02;;;;;;;3.05;2.00;;;13.20;71.50;;;;;;5050940;28;20498;-60
2023/12/28 05:32:34;;;;;;;4.22;2.08;;;13.20;71.50;;;;;;5052004;28;20055;-59
2023/12/28 05:35:04;;;;;;;3.33;2.05;;;13.30;71.40;;;;;;5054868;28;20550;-54
2023/12/28 05:37:33;;;;;;;5.82;2.17;;;13.30;71.30;;;;;;5053265;28;20126;-55
2023/12/28 05:40:05;;;;;;;4.03;2.00;;;13.30;71.40;;;;;;5053703;28;20459;-56
2023/12/28 05:42:37;;;;;;;3.15;2.13;;;13.30;71.10;;;;;;5051905;28;20059;-53
2023/12/28 05:45:04;;;;;;;;;;;13.30;70.90;;;;;;5053851;28;20048;-57
2023/12/28 05:47:31;;;;;;;4.00;1.98;;;13.30;71.00;;;;;;5053848;28;20003;-58
2023/12/28 05:49:57;;;;;;;2.95;2.08;;;13.30;70.80;;;;;;5052486;28;20045;-55
2023/12/28 05:52:26;;;;;;;2.80;1.70;;;13.30;70.70;;;;;;5043477;28;20072;-60
2023/12/28 05:54:56;;;;;;;5.28;2.08;;;13.40;70.80;;;;;;5055215;28;20135;-55
2023/12/28 05:57:23;;;;;;;2.42;1.70;;;13.40;70.70;;;;;;5052783;28;20052;-60
2023/12/28 05:59:50;;;;;;;5.85;2.50;;;13.40;70.50;;;;;;5059413;28;20072;-59
2023/12/28 06:02:16;;;;;;;3.88;2.25;;;13.40;70.50;;;;;;5048116;28;20116;-58
2023/12/28 06:04:43;;;;;;;3.30;2.22;;;13.40;70.40;;;;;;5049000;28;20049;-57
2023/12/28 06:07:13;;;;;;;2.47;1.50;;;13.40;70.40;;;;;;5047122;28;20064;-58
2023/12/28 06:09:49;;;;;;;7.10;1.98;;;13.40;70.40;;;;;;5054683;28;20531;-56
2023/12/28 06:12:22;;;;;;;7.47;2.33;;;13.40;70.30;;;;;;5048435;28;20435;-58
2023/12/28 06:14:48;;;;;;;4.53;1.77;;;13.40;70.30;;;;;;5047649;28;20046;-57
2023/12/28 06:17:15;;;;;;;4.80;2.30;;;13.50;70.20;;;;;;5053248;28;20495;-58
2023/12/28 06:19:42;;;;;;;2.10;1.40;;;13.40;70.10;;;;;;5055851;28;20045;-56
2023/12/28 06:22:13;;;;;;;3.40;1.88;;;13.40;70.00;;;;;;5048345;28;20049;-57
2023/12/28 06:24:42;;;;;;;8.63;2.42;;;13.40;70.00;;;;;;5052878;28;20119;-57
2023/12/28 06:27:09;;;;;;;4.22;1.80;;;13.40;70.00;;;;;;5055940;28;20550;-59
2023/12/28 06:29:45;;;;;;;5.57;1.67;;;13.50;70.00;;;;;;5052005;28;20091;-54
2023/12/28 06:32:15;;;;;;;3.55;1.52;;;13.50;70.00;;;;;;5049034;28;20522;-59
2023/12/28 06:34:44;;;;;;;2.83;1.52;;;13.50;69.90;;;;;;5057240;28;20045;-57
2023/12/28 06:37:10;;;;;;;3.72;1.70;;;13.50;69.90;;;;;;5059020;28;20044;-56
2023/12/28 06:39:41;;;;;;;3.45;1.83;;;13.50;69.90;;;;;;5059223;28;20045;-59
2023/12/28 06:42:14;;;;;;;6.22;1.90;;;13.50;69.90;;;;;;5052340;28;20544;-55
2023/12/28 06:44:46;;;;;;;3.95;1.85;;;13.50;69.70;;;;;;5059661;28;20071;-57
2023/12/28 06:47:15;;;;;;;3.63;2.25;;;13.50;69.80;;;;;;5059088;28;20071;-57
2023/12/28 06:49:49;;;;;;;3.22;1.67;;;13.50;69.80;;;;;;5057753;28;20053;-58
2023/12/28 06:52:20;;;;;;;3.72;1.85;;;13.50;69.80;;;;;;5047955;28;20044;-61
2023/12/28 06:54:50;;;;;;;4.93;2.05;;;13.50;69.70;;;;;;5058404;28;20045;-56
2023/12/28 06:57:17;;;;;;;5.50;1.77;;;13.50;69.90;;;;;;5058956;28;20033;-59
2023/12/28 06:59:49;;;;;;;8.20;2.38;;;13.50;69.70;;;;;;5051687;28;20041;-59
2023/12/28 07:02:17;;;;;;;6.68;2.00;;;13.50;69.60;;;;;;5051750;28;20037;-56
2023/12/28 07:04:46;;;;;;;3.63;1.75;;;13.50;69.60;;;;;;5052427;28;20091;-56
2023/12/28 07:07:14;;;;;;;4.03;1.80;;;13.50;69.60;;;;;;5048873;28;20060;-57
2023/12/28 07:09:45;;;;;;;5.47;2.50;;;13.50;69.60;;;;;;5057290;28;20053;-57
2023/12/28 07:12:16;;;;;;;5.90;2.00;;;13.50;69.50;;;;;;5058011;28;20052;-55
2023/12/28 07:14:43;;;;;;;5.18;2.45;;;13.50;69.40;;;;;;5055578;28;20048;-59
2023/12/28 07:17:11;;;;;;;7.38;2.33;;;13.50;69.40;;;;;;5053948;28;20036;-59
2023/12/28 07:19:38;;;;;;;5.88;2.50;;;13.50;69.30;;;;;;5060128;28;20136;-56
2023/12/28 07:22:05;;;;;;;6.57;1.80;;;13.50;69.30;;;;;;5058077;28;20418;-58
2023/12/28 07:24:40;;;;;;;6.63;1.92;;;13.50;69.40;;;;;;5057292;28;20521;-57
2023/12/28 07:27:07;;;;;;;4.38;2.13;;;13.50;69.30;;;;;;5061786;28;20044;-55
2023/12/28 07:29:35;;;;;;;5.32;2.17;;;13.50;69.20;;;;;;5059765;28;20041;-57
2023/12/28 07:32:01;;;;;;;6.05;2.75;;;13.50;69.10;;;;;;5055768;28;20095;-57
2023/12/28 07:34:28;;;;;;;6.15;2.45;;;13.60;69.20;;;;;;5058096;28;20111;-57
2023/12/28 07:36:56;;;;;;;5.43;1.95;;;13.50;69.10;;;;;;5062682;28;20036;-58
2023/12/28 07:39:25;;;;;;;6.20;1.85;;;13.50;69.10;;;;;;5059995;28;20048;-56
2023/12/28 07:41:56;;;;;;;4.32;1.85;;;13.50;68.90;;;;;;5052922;28;20102;-55
2023/12/28 07:44:26;;;;;;;5.82;1.77;;;13.50;68.80;;;;;;5058271;28;20040;-60
2023/12/28 07:46:58;;;;;;;6.28;2.00;;;13.50;68.90;;;;;;5062782;28;20055;-56
2023/12/28 07:49:24;;;;;;;6.35;2.15;;;13.50;68.80;;;;;;5059849;28;20073;-55
2023/12/28 07:51:53;;;;;;;6.65;2.15;;;13.50;68.70;;;;;;5047768;28;20552;-55
2023/12/28 07:54:20;;;;;;;7.38;2.00;;;13.50;68.60;;;;;;5055310;28;20071;-53
2023/12/28 07:56:47;;;;;;;8.30;2.80;;;13.50;68.30;;;;;;5061383;28;20041;-59
2023/12/28 07:59:17;;;;;;;6.68;1.88;;;13.50;68.40;;;;;;5050631;28;20045;-56
2023/12/28 08:01:46;;;;;;;6.93;2.30;;;13.40;68.20;;;;;;5050526;28;20075;-57
2023/12/28 08:04:17;;;;;;;9.55;2.80;;;13.40;68.30;;;;;;5051844;28;20044;-61
2023/12/28 08:06:47;;;;;;;7.97;2.40;;;13.40;68.30;;;;;;5049374;28;20083;-59
2023/12/28 08:09:15;;;;;;;6.95;2.42;;;13.40;68.30;;;;;;5056572;28;20049;-55
2023/12/28 08:11:47;;;;;;;6.38;1.98;;;13.40;68.40;;;;;;5060231;28;20132;-58
2023/12/28 08:14:14;;;;;;;4.13;1.73;;;13.30;68.40;;;;;;5054460;28;20065;-58
2023/12/28 08:16:41;;;;;;;7.65;2.35;;;13.30;68.50;;;;;;5053657;28;20481;-59
2023/12/28 08:19:07;;;;;;;11.55;3.63;;;13.30;68.60;;;;;;5062787;28;20419;-57
2023/12/28 08:21:41;;;;;;;7.93;2.97;;;13.30;68.60;;;;;;5057187;28;20047;-57
2023/12/28 08:24:09;;;;;;;8.43;2.45;;;13.30;68.60;;;;;;5056256;28;20041;-57
2023/12/28 08:26:38;;;;;;;11.18;2.28;;;13.30;68.70;;;;;;5060271;28;20056;-57
2023/12/28 08:29:09;;;;;;;8.05;2.55;;;13.30;68.70;;;;;;5063335;28;20498;-59
2023/12/28 08:31:37;;;;;;;7.75;2.45;;;13.30;68.80;;;;;;5052260;28;20125;-56
2023/12/28 08:34:04;;;;;;;9.20;2.67;;;13.30;69.50;;;;;;5056955;28;20044;-55
2023/12/28 08:36:43;;;;;;;;;;;;;;;;;;;;;
2023/12/28 08:39:10;;;;;;;7.35;2.90;;;13.40;68.90;;;;;;5062202;28;20052;-55
2023/12/28 08:41:36;;;;;;;6.22;2.25;;;13.40;68.80;;;;;;5053065;28;20068;-56
2023/12/28 08:44:06;;;;;;;4.20;2.20;;;13.50;68.80;;;;;;5062853;28;20041;-56
2023/12/28 08:46:34;;;;;;;8.55;2.60;;;13.50;68.70;;;;;;5057245;28;20099;-56
2023/12/28 08:49:04;;;;;;;7.22;2.63;;;13.50;68.50;;;;;;5063343;28;20052;-60
2023/12/28 08:51:33;;;;;;;9.00;2.92;;;13.50;68.40;;;;;;5049029;28;20091;-57
2023/12/28 08:54:01;;;;;;;5.95;3.08;;;13.50;68.40;;;;;;5052402;28;20064;-55
2023/12/28 08:56:30;;;;;;;7.40;2.40;;;13.60;68.20;;;;;;5059652;28;20063;-59
2023/12/28 08:58:58;;;;;;;7.85;2.25;;;13.60;68.90;;;;;;5043417;28;20048;-58
2023/12/28 09:01:29;;;;;;;5.10;2.58;;;13.60;68.20;;;;;;5049367;28;20098;-56
2023/12/28 09:03:56;;;;;;;5.07;2.20;;;13.60;68.00;;;;;;5050603;28;20052;-53
2023/12/28 09:06:23;;;;;;;8.43;2.45;;;13.70;67.90;;;;;;5049097;28;20045;-57
2023/12/28 09:08:56;;;;;;;11.00;2.45;;;13.70;67.70;;;;;;5062677;28;20064;-56
2023/12/28 09:11:27;;;;;;;7.70;2.40;;;13.70;67.40;;;;;;5060933;28;20040;-57
2023/12/28 09:13:56;;;;;;;10.48;2.78;;;13.60;67.50;;;;;;5057466;28;20078;-60
2023/12/28 09:16:23;;;;;;;6.10;2.47;;;13.60;67.50;;;;;;5053356;28;20056;-54
2023/12/28 09:18:54;;;;;;;3.63;1.60;;;13.60;67.50;;;;;;5063001;28;20041;-60
2023/12/28 09:21:20;;;;;;;5.70;2.20;;;13.60;67.60;;;;;;5055009;28;20047;-57
2023/12/28 09:23:47;;;;;;;6.50;2.17;;;13.60;67.60;;;;;;5054032;28;20667;-57
2023/12/28 09:26:14;;;;;;;7.65;2.35;;;13.70;67.60;;;;;;5061943;28;20067;-57
2023/12/28 09:28:43;;;;;;;5.90;1.75;;;13.60;67.50;;;;;;5061635;28;20063;-59
2023/12/28 09:31:18;;;;;;;8.93;2.42;;;13.70;67.40;;;;;;5057901;28;20573;-58
2023/12/28 09:33:46;;;;;;;7.57;2.20;;;13.70;67.30;;;;;;5059713;28;20462;-57
2023/12/28 09:36:16;;;;;;;7.30;1.98;;;13.70;67.30;;;;;;5057441;28;20064;-59
2023/12/28 09:38:43;;;;;;;7.38;2.42;;;13.70;67.20;;;;;;5062063;28;20120;-57
2023/12/28 09:41:15;;;;;;;7.00;2.25;;;13.70;67.30;;;;;;5056908;28;20579;-57
2023/12/28 09:44:02;;;;;;;8.32;1.98;;;13.70;67.10;;;;;;5054733;28;20488;-57
2023/12/28 09:46:29;;;;;;;7.35;2.58;;;13.70;66.80;;;;;;5061699;28;20106;-57
2023/12/28 09:48:58;;;;;;;7.68;1.95;;;13.70;67.00;;;;;;5064477;28;20049;-59
2023/12/28 09:51:25;;;;;;;8.30;1.65;;;13.70;67.10;;;;;;5046179;28;20410;-59
2023/12/28 09:53:56;;;;;;;10.48;3.17;;;13.70;67.10;;;;;;5051890;28;20105;-57
2023/12/28 09:56:24;;;;;;;6.20;1.92;;;13.70;67.00;;;;;;5063160;28;20063;-57
2023/12/28 09:58:57;;;;;;;6.28;1.90;;;13.70;66.90;;;;;;5052862;28;20395;-54
2023/12/28 10:01:26;;;;;;;7.60;2.42;;;13.70;67.00;;;;;;5048963;28;20037;-57
2023/12/28 10:03:58;;;;;;;5.28;1.90;;;13.70;67.20;;;;;;5049616;28;20561;-57
2023/12/28 10:06:26;;;;;;;5.68;2.40;;;13.80;67.40;;;;;;5047578;28;20581;-56
2023/12/28 10:09:00;;;;;;;7.65;2.17;;;13.80;67.40;;;;;;5063819;28;20483;-54
2023/12/28 10:11:34;;;;;;;5.70;2.43;;;13.90;67.40;;;;;;5064146;28;20055;-55
2023/12/28 10:14:04;;;;;;;5.35;1.70;;;13.90;67.20;;;;;;5068952;28;20062;-57
2023/12/28 10:16:31;;;;;;;7.25;2.78;;;14.00;67.20;;;;;;5059700;28;20061;-56
2023/12/28 10:19:00;;;;;;;4.18;2.78;;;14.00;67.00;;;;;;5062954;28;20067;-56
2023/12/28 10:21:27;;;;;;;12.13;2.22;;;14.10;67.20;;;;;;5060740;28;20040;-56
2023/12/28 10:23:57;;;;;;;4.47;1.75;;;14.10;67.20;;;;;;5061081;28;20040;-59
2023/12/28 10:26:24;;;;;;;4.28;1.63;;;14.20;67.10;;;;;;5067801;28;20072;-57
2023/12/28 10:29:00;;;;;;;4.50;1.67;;;14.30;67.00;;;;;;5061780;28;20047;-58
2023/12/28 10:31:27;;;;;;;5.43;1.80;;;14.30;66.50;;;;;;5058643;28;20041;-58
2023/12/28 10:34:02;;;;;;;5.88;1.70;;;14.30;66.70;;;;;;5065291;28;20047;-57
2023/12/28 10:36:32;;;;;;;9.93;2.47;;;14.40;66.60;;;;;;5065365;28;20505;-56
2023/12/28 10:39:04;;;;;;;4.43;1.88;;;14.40;67.20;;;;;;5057084;28;20037;-55
2023/12/28 10:41:32;;;;;;;;;;;14.50;66.40;;;;;;5057385;28;20033;-57
2023/12/28 10:44:04;;;;;;;9.43;1.95;;;14.60;66.50;;;;;;5057395;28;19982;-59
2023/12/28 10:46:41;;;;;;;7.05;1.95;;;14.60;66.20;;;;;;5066927;28;20120;-58
2023/12/28 10:49:12;;;;;;;4.80;1.55;;;14.60;66.10;;;;;;5059688;28;20064;-59
2023/12/28 10:51:43;;;;;;;5.75;1.63;;;14.70;66.70;;;;;;5055778;28;20499;-55
2023/12/28 10:54:11;;;;;;;5.38;1.98;;;14.70;65.80;;;;;;5058373;28;20042;-57
2023/12/28 10:56:45;;;;;;;6.68;1.90;;;14.70;65.60;;;;;;5066694;28;20048;-61
2023/12/28 10:59:18;;;;;;;4.28;1.80;;;14.70;65.20;;;;;;5054213;28;20041;-58
2023/12/28 11:01:51;;;;;;;9.35;2.67;;;14.80;65.10;;;;;;5050588;28;20394;-57
2023/12/28 11:04:24;;;;;;;6.50;2.00;;;14.80;65.10;;;;;;5053040;28;20033;-58
2023/12/28 11:06:55;;;;;;;6.70;2.03;;;14.80;64.80;;;;;;5050196;28;20051;-60
2023/12/28 11:09:30;;;;;;;4.70;1.60;;;14.80;64.70;;;;;;5055218;28;20072;-58
2023/12/28 11:12:04;;;;;;;11.63;2.95;;;14.80;64.80;;;;;;5056039;28;20040;-57
2023/12/28 11:14:34;;;;;;;6.65;2.38;;;14.80;64.80;;;;;;5067865;28;20039;-56
2023/12/28 11:17:01;;;;;;;8.75;2.38;;;14.80;64.80;;;;;;5057469;28;20048;-56
2023/12/28 11:19:32;;;;;;;6.88;2.38;;;14.80;64.80;;;;;;5060033;28;20086;-57
2023/12/28 11:22:02;;;;;;;5.70;2.25;;;14.90;64.40;;;;;;5060142;28;20037;-58
2023/12/28 11:24:30;;;;;;;8.18;2.50;;;14.80;64.60;;;;;;5060099;28;20036;-56
2023/12/28 11:26:59;;;;;;;9.07;2.03;;;14.80;64.40;;;;;;5068950;28;20098;-55
2023/12/28 11:29:31;;;;;;;5.75;1.70;;;14.80;64.20;;;;;;5068644;28;20059;-57
2023/12/28 11:31:59;;;;;;;5.82;1.80;;;14.90;64.60;;;;;;5054954;28;20109;-55
2023/12/28 11:34:30;;;;;;;6.97;1.90;;;14.90;64.60;;;;;;5061102;28;20514;-55
2023/12/28 11:36:59;;;;;;;10.50;2.15;;;14.90;64.80;;;;;;5062123;28;20060;-59
2023/12/28 11:39:34;;;;;;;5.88;2.03;;;15.00;64.60;;;;;;5068853;28;20398;-55
2023/12/28 11:42:08;;;;;;;6.25;2.25;;;15.00;64.30;;;;;;5049452;28;20048;-59
2023/12/28 11:44:44;;;;;;;5.93;1.58;;;15.00;64.40;;;;;;5066308;28;20692;-54
2023/12/28 11:47:16;;;;;;;5.50;1.98;;;15.00;64.10;;;;;;5069709;28;20029;-58
2023/12/28 11:49:47;;;;;;;9.65;2.47;;;15.00;64.00;;;;;;5060434;28;20450;-60
2023/12/28 11:52:29;;;;;;;6.13;1.80;;;15.00;63.90;;;;;;5049615;28;20052;-58
2023/12/28 11:54:56;;;;;;;5.55;2.45;;;15.00;63.60;;;;;;5061997;28;20115;-59
2023/12/28 11:57:27;;;;;;;9.45;2.00;;;15.10;63.90;;;;;;5066212;28;20036;-56
2023/12/28 11:59:58;;;;;;;8.18;3.15;;;15.00;64.00;;;;;;5050565;28;20060;-57
2023/12/28 12:02:25;;;;;;;4.68;2.00;;;15.10;64.10;;;;;;5050951;28;20503;-55
2023/12/28 12:04:54;;;;;;;8.70;1.95;;;15.10;63.90;;;;;;5050743;28;20043;-59
2023/12/28 12:07:23;;;;;;;8.10;1.98;;;15.10;63.80;;;;;;5049642;28;20107;-59
2023/12/28 12:09:55;;;;;;;6.90;1.92;;;15.00;63.70;;;;;;5062216;28;20499;-59
2023/12/28 12:12:22;;;;;;;8.70;2.03;;;15.10;63.20;;;;;;5068928;28;20036;-59
2023/12/28 12:14:51;;;;;;;6.97;2.25;;;15.10;63.60;;;;;;5068566;28;20060;-56
2023/12/28 12:17:19;;;;;;;6.70;2.03;;;15.00;63.70;;;;;;5054009;28;20048;-60
2023/12/28 12:19:48;;;;;;;7.25;2.00;;;15.00;63.50;;;;;;5060866;28;20567;-56
2023/12/28 12:22:16;;;;;;;7.93;2.63;;;15.10;63.60;;;;;;5057293;28;20825;-59
2023/12/28 12:24:48;;;;;;;7.72;1.92;;;15.10;63.50;;;;;;5058434;28;20037;-56
2023/12/28 12:27:17;;;;;;;4.95;2.10;;;15.10;63.30;;;;;;5069975;28;20036;-57
2023/12/28 12:29:44;;;;;;;9.48;2.50;;;15.10;63.50;;;;;;5068983;28;20565;-58
2023/12/28 12:32:11;;;;;;;6.80;2.20;;;15.10;63.40;;;;;;5059425;28;20044;-58
2023/12/28 12:34:39;;;;;;;6.38;1.60;;;15.20;63.50;;;;;;5059010;28;20416;-60
2023/12/28 12:37:06;;;;;;;9.65;3.05;;;15.20;63.30;;;;;;5069645;28;20078;-55
2023/12/28 12:39:33;;;;;;;11.18;3.20;;;15.20;63.30;;;;;;5063249;28;20127;-60
2023/12/28 12:42:02;;;;;;;3.72;1.48;;;15.20;63.10;;;;;;5051424;28;20094;-57
2023/12/28 12:44:29;;;;;;;9.93;2.22;;;15.20;62.80;;;;;;5070294;28;20040;-53
2023/12/28 12:47:01;;;;;;;7.63;1.90;;;15.30;62.90;;;;;;5068840;28;20088;-57
2023/12/28 12:49:28;;;;;;;6.95;1.80;;;15.20;62.60;;;;;;5060627;28;20041;-60
2023/12/28 12:51:55;;;;;;;8.95;2.92;;;15.30;62.70;;;;;;5054568;28;20045;-60
2023/12/28 12:54:22;;;;;;;7.13;2.38;;;15.20;62.50;;;;;;5055146;28;20098;-57
2023/12/28 12:56:52;;;;;;;6.93;1.75;;;15.20;62.50;;;;;;5068490;28;20044;-56
2023/12/28 12:59:22;;;;;;;6.40;1.98;;;15.20;62.30;;;;;;5049208;28;20123;-58